map of KTEW home
KTEW - Airport
Location
City:  Mason, Michigan, United States
Name:Mason Jewett Field
ICAO:KTEW
FAA LID:TEW

Details
Type:Airport (Airfield)
Use:Public/Civil
Latitude:4233'57"N (42.565778)
Longitude:8425'23"W (-84.423193)
Datum:WGS 1984
Elevation:919 ft (280 m)
Variation:6.52W (WMM2015 magnetic declination)
-0.04 annual change
Runways:1
Longest:4004 × 75 ft (1220 × 23 m), paved

Time
Time Zone:UTC-5 (DST-4)
Local Time:

Weather
METAR:KTEW 031924Z AUTO 24005KT 10SM OVC027 02/M01 A3030 RMK AO2 T00201006

Related Locations
Nearby:
Farthest:MQZ: 11226 mi / 18067 km
Margaret River [Margaret River Airport], WA, AU

Find:

   beyond  
but within

Other Information
Maps:
NOTAMs:
Links:
Sources:

  
flag of United States
flag of Michigan
  

Sectional Chart

Flight Planning
at skyvector.com

Satellite Image

Google Maps Satellite view

 

Copyright © 2004-2016 Karl L. Swartz. All rights reserved.
The Great Circle Mapper name and logo are trademarks of the Great Circle Mapper.
All other trademarks mentioned herein belong to their respective owners.
Please see credits for attibutions and further copyright information.

  Follow gcmap on Facebook Follow gcmap on Twitter Follow gcmap on Google+ GCmap on LinkedIn

hCard Microformat

Geo Microformat